createdAt,value
2018-07-09T00:00:06.878Z,21.42
2018-07-09T00:01:07.048Z,21.46
2018-07-09T00:02:07.226Z,21.46
2018-07-09T00:03:07.464Z,21.46
2018-07-09T00:04:07.589Z,21.42
2018-07-09T00:05:07.760Z,21.32
2018-07-09T00:06:07.978Z,21.21
2018-07-09T00:07:08.111Z,21.29
2018-07-09T00:08:08.281Z,21.25
2018-07-09T00:09:08.455Z,21.29
2018-07-09T00:10:08.632Z,21.32
2018-07-09T00:11:08.943Z,21.19
2018-07-09T00:12:08.985Z,21.24
2018-07-09T00:13:09.132Z,21.21
2018-07-09T00:14:09.299Z,21.28
2018-07-09T00:15:09.476Z,21.25
2018-07-09T00:16:09.700Z,21.28
2018-07-09T00:17:09.821Z,21.24
2018-07-09T00:18:09.982Z,21.21
2018-07-09T00:19:10.156Z,21.24
2018-07-09T00:20:10.343Z,21.27
2018-07-09T00:21:10.526Z,21.25
2018-07-09T00:22:10.863Z,21.14
2018-07-09T00:23:11.259Z,21.06
2018-07-09T00:24:11.096Z,20.92
2018-07-09T00:25:11.283Z,20.88
2018-07-09T00:26:11.420Z,20.73
2018-07-09T00:27:11.611Z,20.62
2018-07-09T00:28:11.860Z,20.69
2018-07-09T00:29:11.927Z,20.69
2018-07-09T00:30:12.121Z,20.72
2018-07-09T00:31:12.282Z,20.72
2018-07-09T00:32:12.523Z,20.74
2018-07-09T00:33:12.616Z,20.64
2018-07-09T00:34:12.834Z,20.57
2018-07-09T00:35:12.947Z,20.54
2018-07-09T00:36:13.101Z,20.50
2018-07-09T00:37:13.454Z,20.57
2018-07-09T00:38:13.386Z,20.55
2018-07-09T00:39:13.558Z,20.57
2018-07-09T00:40:14.479Z,20.52
2018-07-09T00:41:13.897Z,20.64
2018-07-09T00:42:14.075Z,20.59
2018-07-09T00:43:14.259Z,20.59
2018-07-09T00:44:14.420Z,20.64
2018-07-09T00:45:14.591Z,20.64
2018-07-09T00:46:14.756Z,20.62
2018-07-09T00:47:14.927Z,20.54
2018-07-09T00:48:15.097Z,20.61
2018-07-09T00:49:15.265Z,20.61
2018-07-09T00:50:15.442Z,20.61
2018-07-09T00:51:15.612Z,20.52
2018-07-09T00:52:15.775Z,20.51
2018-07-09T00:53:15.952Z,20.48
2018-07-09T00:54:16.109Z,20.51
2018-07-09T00:55:16.281Z,20.43
2018-07-09T00:56:16.458Z,20.50
2018-07-09T00:57:16.628Z,20.47
2018-07-09T00:58:16.800Z,20.47
2018-07-09T00:59:16.970Z,20.41
2018-07-09T01:00:17.147Z,20.32
2018-07-09T01:01:17.316Z,20.42
2018-07-09T01:02:17.483Z,20.48
2018-07-09T01:03:17.655Z,20.42
2018-07-09T01:04:17.820Z,20.38
2018-07-09T01:05:17.989Z,20.43
2018-07-09T01:06:18.156Z,20.41
2018-07-09T01:07:18.323Z,20.47
2018-07-09T01:08:18.498Z,20.43
2018-07-09T01:09:18.657Z,20.51
2018-07-09T01:10:18.824Z,20.43
2018-07-09T01:11:19.001Z,20.55
2018-07-09T01:12:19.174Z,20.55
2018-07-09T01:13:19.352Z,20.50
2018-07-09T01:14:19.512Z,20.42
2018-07-09T01:15:20.475Z,20.48
2018-07-09T01:16:19.891Z,20.51
2018-07-09T01:17:20.063Z,20.48
2018-07-09T01:18:20.231Z,20.48
2018-07-09T01:19:20.405Z,20.41
2018-07-09T01:20:20.598Z,20.47
2018-07-09T01:21:20.747Z,20.48
2018-07-09T01:22:20.918Z,20.48
2018-07-09T01:23:21.087Z,20.47
2018-07-09T01:24:21.254Z,20.41
2018-07-09T01:25:21.421Z,20.33
2018-07-09T01:26:21.600Z,20.28
2018-07-09T01:27:21.769Z,20.16
2018-07-09T01:28:21.937Z,20.01
2018-07-09T01:29:22.114Z,20.02
2018-07-09T01:30:22.287Z,20.03
2018-07-09T01:31:22.451Z,19.94
2018-07-09T01:32:22.617Z,19.92
2018-07-09T01:33:22.796Z,19.92
2018-07-09T01:34:22.959Z,19.94
2018-07-09T01:35:23.133Z,19.91
2018-07-09T01:36:23.302Z,19.91
2018-07-09T01:37:23.472Z,19.80
2018-07-09T01:38:23.640Z,19.87
2018-07-09T01:39:23.810Z,19.76
2018-07-09T01:40:23.976Z,19.84
2018-07-09T01:41:24.153Z,19.73
2018-07-09T01:42:24.321Z,19.74
2018-07-09T01:43:24.488Z,19.78
2018-07-09T01:44:24.653Z,19.74
2018-07-09T01:45:24.825Z,19.80
2018-07-09T01:46:24.997Z,19.86
2018-07-09T01:47:25.163Z,19.78
2018-07-09T01:48:25.329Z,19.81
2018-07-09T01:49:25.521Z,19.84
2018-07-09T01:50:25.665Z,19.87
2018-07-09T01:51:25.837Z,19.81
2018-07-09T01:52:26.014Z,19.78
2018-07-09T01:53:26.177Z,19.86
2018-07-09T01:54:26.344Z,19.76
2018-07-09T01:55:26.515Z,19.63
2018-07-09T01:56:26.686Z,19.68
2018-07-09T01:57:26.855Z,19.62
2018-07-09T01:58:27.026Z,19.59
2018-07-09T01:59:27.194Z,19.63
2018-07-09T02:00:27.359Z,19.68
2018-07-09T02:01:27.527Z,19.61
2018-07-09T02:02:27.694Z,19.47
2018-07-09T02:03:27.862Z,19.47
2018-07-09T02:04:28.034Z,19.48
2018-07-09T02:05:28.201Z,19.37
2018-07-09T02:06:28.368Z,19.44
2018-07-09T02:07:28.537Z,19.36
2018-07-09T02:08:28.706Z,19.37
2018-07-09T02:09:28.873Z,19.47
2018-07-09T02:10:29.051Z,19.40
2018-07-09T02:11:29.219Z,19.40
2018-07-09T02:12:29.386Z,19.43
2018-07-09T02:13:29.552Z,19.33
2018-07-09T02:14:29.715Z,19.46
2018-07-09T02:15:29.887Z,19.46
2018-07-09T02:16:30.057Z,19.44
2018-07-09T02:17:30.225Z,19.51
2018-07-09T02:18:30.397Z,19.55
2018-07-09T02:19:30.560Z,19.63
2018-07-09T02:20:30.773Z,19.56
2018-07-09T02:21:30.900Z,19.48
2018-07-09T02:22:31.071Z,19.47
2018-07-09T02:23:31.243Z,19.26
2018-07-09T02:24:31.407Z,19.28
2018-07-09T02:25:31.575Z,19.29
2018-07-09T02:26:31.745Z,19.28
2018-07-09T02:27:31.909Z,19.18
2018-07-09T02:28:32.075Z,19.18
2018-07-09T02:29:32.247Z,19.21
2018-07-09T02:30:32.417Z,19.16
2018-07-09T02:31:32.591Z,19.07
2018-07-09T02:32:32.759Z,19.19
2018-07-09T02:33:32.925Z,19.18
2018-07-09T02:34:33.095Z,19.22
2018-07-09T02:35:33.268Z,19.25
2018-07-09T02:36:33.436Z,19.16
2018-07-09T02:37:33.602Z,19.18
2018-07-09T02:38:33.772Z,19.06
2018-07-09T02:39:33.936Z,19.07
2018-07-09T02:40:34.106Z,19.06
2018-07-09T02:41:34.275Z,18.94
2018-07-09T02:42:34.444Z,18.88
2018-07-09T02:43:34.612Z,18.84
2018-07-09T02:44:34.779Z,18.85
2018-07-09T02:45:34.950Z,18.90
2018-07-09T02:46:35.120Z,18.81
2018-07-09T02:47:35.284Z,18.76
2018-07-09T02:48:35.453Z,18.80
2018-07-09T02:49:35.620Z,18.82
2018-07-09T02:50:35.789Z,18.84
2018-07-09T02:51:35.962Z,18.78
2018-07-09T02:52:36.125Z,18.75
2018-07-09T02:53:36.295Z,18.78
2018-07-09T02:54:36.461Z,18.81
2018-07-09T02:55:36.638Z,18.81
2018-07-09T02:56:36.801Z,18.87
2018-07-09T02:57:36.967Z,18.85
2018-07-09T02:58:37.138Z,18.87
2018-07-09T02:59:37.304Z,18.85
2018-07-09T03:00:37.477Z,18.76
2018-07-09T03:01:37.643Z,18.78
2018-07-09T03:02:37.811Z,18.72
2018-07-09T03:03:37.983Z,18.70
2018-07-09T03:04:38.148Z,18.75
2018-07-09T03:05:38.314Z,18.72
2018-07-09T03:06:38.483Z,18.65
2018-07-09T03:07:38.653Z,18.81
2018-07-09T03:08:38.829Z,18.80
2018-07-09T03:09:39.001Z,18.73
2018-07-09T03:10:39.164Z,18.78
2018-07-09T03:11:39.335Z,18.63
2018-07-09T03:12:39.501Z,18.73
2018-07-09T03:13:39.673Z,18.70
2018-07-09T03:14:39.841Z,18.73
2018-07-09T03:15:40.009Z,18.67
2018-07-09T03:16:40.173Z,18.82
2018-07-09T03:17:40.350Z,18.72
2018-07-09T03:18:40.508Z,18.66
2018-07-09T03:19:40.677Z,18.72
2018-07-09T03:20:40.852Z,18.67
2018-07-09T03:21:41.019Z,18.63
2018-07-09T03:22:41.188Z,18.66
2018-07-09T03:23:41.357Z,18.60
2018-07-09T03:24:41.530Z,18.65
2018-07-09T03:25:41.695Z,18.63
2018-07-09T03:26:41.865Z,18.54
2018-07-09T03:27:42.037Z,18.52
2018-07-09T03:28:42.204Z,18.57
2018-07-09T03:29:42.426Z,18.57
2018-07-09T03:30:42.539Z,18.48
2018-07-09T03:31:42.708Z,18.41
2018-07-09T03:32:42.881Z,18.52
2018-07-09T03:33:43.047Z,18.52
2018-07-09T03:34:43.215Z,18.60
2018-07-09T03:35:43.377Z,18.55
2018-07-09T03:36:43.549Z,18.60
2018-07-09T03:37:43.719Z,18.41
2018-07-09T03:38:43.889Z,18.39
2018-07-09T03:39:44.053Z,18.35
2018-07-09T03:40:44.222Z,18.30
2018-07-09T03:41:44.393Z,18.30
2018-07-09T03:42:44.561Z,18.29
2018-07-09T03:43:44.728Z,18.15
2018-07-09T03:44:44.894Z,18.32
2018-07-09T03:45:45.065Z,18.20
2018-07-09T03:46:45.232Z,18.18
2018-07-09T03:47:45.400Z,18.20
2018-07-09T03:48:45.571Z,18.21
2018-07-09T03:49:45.740Z,18.25
2018-07-09T03:50:45.913Z,18.32
2018-07-09T03:51:46.077Z,18.26
2018-07-09T03:52:46.245Z,18.33
2018-07-09T03:53:46.417Z,18.35
2018-07-09T03:54:46.589Z,18.36
2018-07-09T03:55:46.757Z,18.36
2018-07-09T03:56:46.927Z,18.37
2018-07-09T03:57:47.101Z,18.44
2018-07-09T03:58:47.269Z,18.37
2018-07-09T03:59:47.439Z,18.45
2018-07-09T04:00:47.605Z,18.35
2018-07-09T04:01:47.771Z,18.36
2018-07-09T04:02:47.941Z,18.39
2018-07-09T04:03:48.111Z,18.50
2018-07-09T04:04:48.282Z,18.35
2018-07-09T04:05:48.447Z,18.30
2018-07-09T04:06:48.616Z,18.17
2018-07-09T04:07:48.782Z,18.10
2018-07-09T04:08:48.949Z,18.14
2018-07-09T04:09:49.125Z,18.15
2018-07-09T04:10:49.290Z,18.11
2018-07-09T04:11:49.463Z,18.17
2018-07-09T04:12:49.624Z,18.14
2018-07-09T04:13:49.794Z,18.14
2018-07-09T04:14:50.015Z,18.18
2018-07-09T04:15:50.128Z,18.17
2018-07-09T04:16:50.297Z,18.17
2018-07-09T04:17:50.466Z,18.25
2018-07-09T04:18:50.643Z,18.23
2018-07-09T04:19:50.819Z,18.27
2018-07-09T04:20:51.042Z,18.37
2018-07-09T04:21:51.153Z,18.50
2018-07-09T04:22:51.322Z,18.66
2018-07-09T04:23:51.492Z,18.63
2018-07-09T04:24:51.660Z,18.65
2018-07-09T04:25:51.828Z,18.69
2018-07-09T04:26:51.999Z,18.57
2018-07-09T04:27:52.164Z,18.41
2018-07-09T04:28:52.333Z,18.45
2018-07-09T04:29:52.502Z,18.35
2018-07-09T04:30:52.665Z,18.33
2018-07-09T04:31:52.838Z,18.27
2018-07-09T04:32:53.014Z,18.26
2018-07-09T04:33:53.177Z,18.27
2018-07-09T04:34:53.342Z,18.26
2018-07-09T04:35:53.515Z,18.25
2018-07-09T04:36:53.686Z,18.21
2018-07-09T04:37:53.906Z,18.17
2018-07-09T04:38:54.023Z,18.20
2018-07-09T04:39:54.187Z,18.27
2018-07-09T04:40:54.359Z,18.23
2018-07-09T04:41:54.529Z,18.20
2018-07-09T04:42:54.699Z,18.20
2018-07-09T04:43:54.868Z,18.12
2018-07-09T04:44:55.035Z,18.15
2018-07-09T04:45:55.202Z,18.14
2018-07-09T04:46:55.375Z,18.15
2018-07-09T04:47:55.539Z,18.17
2018-07-09T04:48:55.708Z,18.18
2018-07-09T04:49:55.886Z,18.20
2018-07-09T04:50:56.043Z,18.26
2018-07-09T04:51:56.207Z,18.21
2018-07-09T04:52:56.373Z,18.32
2018-07-09T04:53:56.543Z,18.20
2018-07-09T04:54:56.712Z,18.37
2018-07-09T04:55:56.882Z,18.42
2018-07-09T04:56:57.050Z,18.52
2018-07-09T04:57:57.218Z,18.62
2018-07-09T04:58:57.389Z,18.57
2018-07-09T04:59:57.553Z,18.65
2018-07-09T05:00:57.720Z,18.70
2018-07-09T05:01:57.896Z,18.73
2018-07-09T05:02:58.056Z,18.65
2018-07-09T05:03:58.231Z,18.66
2018-07-09T05:04:58.400Z,18.66
2018-07-09T05:05:58.564Z,18.69
2018-07-09T05:06:58.731Z,18.76
2018-07-09T05:07:58.904Z,18.76
2018-07-09T05:08:59.070Z,18.73
2018-07-09T05:09:59.238Z,18.76
2018-07-09T05:10:59.415Z,18.70
2018-07-09T05:11:59.580Z,18.76
2018-07-09T05:12:59.801Z,18.85
2018-07-09T05:13:59.915Z,18.98
2018-07-09T05:15:00.092Z,19.02
2018-07-09T05:16:00.257Z,19.07
2018-07-09T05:17:00.422Z,18.95
2018-07-09T05:18:00.588Z,19.06
2018-07-09T05:19:00.760Z,19.08
2018-07-09T05:20:00.927Z,19.13
2018-07-09T05:21:01.097Z,19.16
2018-07-09T05:22:01.273Z,19.23
2018-07-09T05:23:01.442Z,19.16
2018-07-09T05:24:01.606Z,19.18
2018-07-09T05:25:01.778Z,19.29
2018-07-09T05:26:01.950Z,19.28
2018-07-09T05:27:02.117Z,19.26
2018-07-09T05:28:02.288Z,19.32
2018-07-09T05:29:02.456Z,19.39
2018-07-09T05:30:02.628Z,19.39
2018-07-09T05:31:02.794Z,19.43
2018-07-09T05:32:02.958Z,19.55
2018-07-09T05:33:03.128Z,19.61
2018-07-09T05:34:03.301Z,19.80
2018-07-09T05:35:03.469Z,19.81
2018-07-09T05:36:03.631Z,19.86
2018-07-09T05:37:03.802Z,19.84
2018-07-09T05:38:03.975Z,19.99
2018-07-09T05:39:04.147Z,20.13
2018-07-09T05:40:04.371Z,20.16
2018-07-09T05:41:04.487Z,20.10
2018-07-09T05:42:04.651Z,19.96
2018-07-09T05:43:04.826Z,19.99
2018-07-09T05:44:04.990Z,19.96
2018-07-09T05:45:05.160Z,20.05
2018-07-09T05:46:05.341Z,20.11
2018-07-09T05:47:05.490Z,20.10
2018-07-09T05:48:05.660Z,20.11
2018-07-09T05:49:05.828Z,20.05
2018-07-09T05:50:05.993Z,20.20
2018-07-09T05:51:06.173Z,20.17
2018-07-09T05:52:06.342Z,20.24
2018-07-09T05:53:06.520Z,20.35
2018-07-09T05:54:06.686Z,20.38
2018-07-09T05:55:06.857Z,20.55
2018-07-09T05:56:07.052Z,20.47
2018-07-09T05:57:07.195Z,20.54
2018-07-09T05:58:07.386Z,20.67
2018-07-09T05:59:07.559Z,20.64
2018-07-09T06:00:07.723Z,20.67
2018-07-09T06:01:07.900Z,20.73
2018-07-09T06:02:08.065Z,20.72
2018-07-09T06:03:08.236Z,20.85
2018-07-09T06:04:08.407Z,20.79
2018-07-09T06:05:08.580Z,20.91
2018-07-09T06:06:08.758Z,20.97
2018-07-09T06:07:08.921Z,21.06
2018-07-09T06:08:09.093Z,21.13
2018-07-09T06:09:09.259Z,20.95
2018-07-09T06:10:09.429Z,21.07
2018-07-09T06:11:09.610Z,21.16
2018-07-09T06:12:09.770Z,21.22
2018-07-09T06:13:09.936Z,21.24
2018-07-09T06:14:10.106Z,21.28
2018-07-09T06:15:10.282Z,21.31
2018-07-09T06:16:10.462Z,21.59
2018-07-09T06:17:10.625Z,21.77
2018-07-09T06:18:10.795Z,21.99
2018-07-09T06:19:10.964Z,22.07
2018-07-09T06:20:11.162Z,22.14
2018-07-09T06:21:11.326Z,22.25
2018-07-09T06:22:11.497Z,22.31
2018-07-09T06:23:11.666Z,22.52
2018-07-09T06:24:11.834Z,22.52
2018-07-09T06:25:12.006Z,22.61
2018-07-09T06:26:12.173Z,22.62
2018-07-09T06:27:12.348Z,22.82
2018-07-09T06:28:12.521Z,22.91
2018-07-09T06:29:12.701Z,22.98
2018-07-09T06:30:12.854Z,22.95
2018-07-09T06:31:13.022Z,23.10
2018-07-09T06:32:13.197Z,23.12
2018-07-09T06:33:13.368Z,23.10
2018-07-09T06:34:13.538Z,23.16
2018-07-09T06:35:13.707Z,23.04
2018-07-09T06:36:13.877Z,23.22
2018-07-09T06:37:14.046Z,23.28
2018-07-09T06:38:14.222Z,23.38
2018-07-09T06:39:14.408Z,23.31
2018-07-09T06:40:14.589Z,23.28
2018-07-09T06:41:14.753Z,23.31
2018-07-09T06:42:14.926Z,23.33
2018-07-09T06:43:15.100Z,23.40
2018-07-09T06:44:15.267Z,23.38
2018-07-09T06:45:15.441Z,23.33
2018-07-09T06:46:15.607Z,23.23
2018-07-09T06:47:15.782Z,23.33
2018-07-09T06:48:15.960Z,23.23
2018-07-09T06:49:16.133Z,23.35
2018-07-09T06:50:16.307Z,23.19
2018-07-09T06:51:16.482Z,23.35
2018-07-09T06:52:16.653Z,23.39
2018-07-09T06:53:16.826Z,23.47
2018-07-09T06:54:16.998Z,23.65
2018-07-09T06:55:17.171Z,23.63
2018-07-09T06:56:17.337Z,23.72
2018-07-09T06:57:17.517Z,23.57
2018-07-09T06:58:17.688Z,23.55
2018-07-09T06:59:17.864Z,23.60
2018-07-09T07:00:18.031Z,23.55
2018-07-09T07:01:18.199Z,23.40
2018-07-09T07:02:18.386Z,23.54
2018-07-09T07:03:18.542Z,23.65
2018-07-09T07:04:18.713Z,23.60
2018-07-09T07:05:18.879Z,23.75
2018-07-09T07:06:19.058Z,23.72
2018-07-09T07:07:19.231Z,23.57
2018-07-09T07:08:19.408Z,23.50
2018-07-09T07:09:19.576Z,23.63
2018-07-09T07:10:19.749Z,23.63
2018-07-09T07:11:19.922Z,23.70
2018-07-09T07:12:20.090Z,23.55
2018-07-09T07:13:20.259Z,23.68
2018-07-09T07:14:20.459Z,23.63
2018-07-09T07:15:20.601Z,23.55
2018-07-09T07:16:20.771Z,23.63
2018-07-09T07:17:20.941Z,23.63
2018-07-09T07:18:21.120Z,23.72
2018-07-09T07:19:21.292Z,23.83
2018-07-09T07:20:21.460Z,23.91
2018-07-09T07:21:21.638Z,23.88
2018-07-09T07:22:21.802Z,23.98
2018-07-09T07:23:21.976Z,23.84
2018-07-09T07:24:22.144Z,23.66
2018-07-09T07:25:22.312Z,23.61
2018-07-09T07:26:22.481Z,23.66
2018-07-09T07:27:22.658Z,23.85
2018-07-09T07:28:22.832Z,23.88
2018-07-09T07:29:23.000Z,23.88
2018-07-09T07:30:23.174Z,23.69
2018-07-09T07:31:23.348Z,23.72
2018-07-09T07:32:23.519Z,23.84
2018-07-09T07:33:23.699Z,23.85
2018-07-09T07:34:23.862Z,23.94
2018-07-09T07:35:24.032Z,24.08
2018-07-09T07:36:24.203Z,24.20
2018-07-09T07:37:24.368Z,23.98
2018-07-09T07:38:24.540Z,24.09
2018-07-09T07:39:24.775Z,24.10
2018-07-09T07:40:24.873Z,24.27
2018-07-09T07:41:25.049Z,24.20
2018-07-09T07:42:25.218Z,24.32
2018-07-09T07:43:25.391Z,24.42
2018-07-09T07:44:25.562Z,24.31
2018-07-09T07:45:25.729Z,24.42
2018-07-09T07:46:25.903Z,24.47
2018-07-09T07:47:26.079Z,24.55
2018-07-09T07:48:26.249Z,24.47
2018-07-09T07:49:26.424Z,24.46
2018-07-09T07:50:26.716Z,24.62
2018-07-09T07:51:26.768Z,24.64
2018-07-09T07:52:26.959Z,24.61
2018-07-09T07:53:27.120Z,24.64
2018-07-09T07:54:27.275Z,24.55
2018-07-09T07:55:27.450Z,24.49
2018-07-09T07:56:27.619Z,24.64
2018-07-09T07:57:27.787Z,24.61
2018-07-09T07:58:27.964Z,24.80
2018-07-09T07:59:28.129Z,24.76
2018-07-09T08:00:28.304Z,24.88
2018-07-09T08:01:28.481Z,24.85
2018-07-09T08:02:28.650Z,24.78
2018-07-09T08:03:28.817Z,24.77
2018-07-09T08:04:28.990Z,24.77
2018-07-09T08:05:29.164Z,24.65
2018-07-09T08:06:29.341Z,24.67
2018-07-09T08:07:29.519Z,24.85
2018-07-09T08:08:29.690Z,24.88
2018-07-09T08:09:29.923Z,24.96
2018-07-09T08:10:30.034Z,24.96
2018-07-09T08:11:47.729Z,25.03
2018-07-09T08:13:01.005Z,25.02
2018-07-09T08:13:30.566Z,24.91
2018-07-09T08:14:30.720Z,24.80
2018-07-09T08:15:30.891Z,24.65
2018-07-09T08:16:31.060Z,24.62
2018-07-09T08:17:31.228Z,24.62
2018-07-09T08:18:31.396Z,24.78
2018-07-09T08:19:31.568Z,24.84
2018-07-09T08:20:31.740Z,24.98
2018-07-09T08:21:31.911Z,25.03
2018-07-09T08:22:32.079Z,24.95
2018-07-09T08:23:32.253Z,24.96
2018-07-09T08:24:32.432Z,24.95
2018-07-09T08:25:32.726Z,24.80
2018-07-09T08:26:32.792Z,24.90
2018-07-09T08:27:32.958Z,25.03
2018-07-09T08:28:33.126Z,25.10
2018-07-09T08:29:33.297Z,25.35
2018-07-09T08:30:33.473Z,25.20
2018-07-09T08:31:33.643Z,25.08
2018-07-09T08:32:33.812Z,25.14
2018-07-09T08:33:33.989Z,25.21
2018-07-09T08:34:34.169Z,25.46
2018-07-09T08:35:34.341Z,25.55
2018-07-09T08:36:34.521Z,25.64
2018-07-09T08:37:34.698Z,25.62
2018-07-09T08:38:34.909Z,25.76
2018-07-09T08:39:35.133Z,25.88
2018-07-09T08:40:35.303Z,25.85
2018-07-09T08:41:35.485Z,25.97
2018-07-09T08:42:35.667Z,26.05
2018-07-09T08:43:35.840Z,26.01
2018-07-09T08:44:36.018Z,26.05
2018-07-09T08:45:36.199Z,26.02
2018-07-09T08:46:36.370Z,26.17
2018-07-09T08:47:36.553Z,25.85
2018-07-09T08:48:36.724Z,25.87
2018-07-09T08:49:36.893Z,26.02
2018-07-09T08:50:37.115Z,26.12
2018-07-09T08:51:37.239Z,26.13
2018-07-09T08:52:37.418Z,26.07
2018-07-09T08:53:37.593Z,26.28
2018-07-09T08:54:37.768Z,26.43
2018-07-09T08:55:37.952Z,26.45
2018-07-09T08:56:38.120Z,26.44
2018-07-09T08:57:38.290Z,26.47
2018-07-09T08:58:38.466Z,26.62
2018-07-09T08:59:38.648Z,26.57
2018-07-09T09:00:38.823Z,26.62
2018-07-09T09:01:38.999Z,26.73
2018-07-09T09:02:39.167Z,26.89
2018-07-09T09:03:39.367Z,26.99
2018-07-09T09:04:39.520Z,26.97
2018-07-09T09:05:39.688Z,26.85
2018-07-09T09:06:39.872Z,26.89
2018-07-09T09:07:40.044Z,26.99
2018-07-09T09:08:40.223Z,27.12
2018-07-09T09:09:40.399Z,27.10
2018-07-09T09:10:40.580Z,27.24
2018-07-09T09:11:40.758Z,27.46
2018-07-09T09:12:40.929Z,27.47
2018-07-09T09:13:41.108Z,27.47
2018-07-09T09:14:41.275Z,27.62
2018-07-09T09:15:41.449Z,27.70
2018-07-09T09:16:41.633Z,27.84
2018-07-09T09:17:41.796Z,28.09
2018-07-09T09:18:41.977Z,28.09
2018-07-09T09:19:42.152Z,28.22
2018-07-09T09:20:42.323Z,28.41
2018-07-09T09:21:42.502Z,28.52
2018-07-09T09:22:42.667Z,28.77
2018-07-09T09:23:42.845Z,28.73
2018-07-09T09:24:43.027Z,29.08
2018-07-09T09:25:43.202Z,29.34
2018-07-09T09:26:43.391Z,29.41
2018-07-09T09:27:43.571Z,30.32
2018-07-09T09:28:43.743Z,30.82
2018-07-09T09:29:43.929Z,31.89
2018-07-09T09:30:44.117Z,33.06
2018-07-09T09:31:44.285Z,34.15
2018-07-09T09:32:44.467Z,35.06
2018-07-09T09:33:44.646Z,35.92
2018-07-09T09:34:44.825Z,36.37
2018-07-09T09:35:45.005Z,36.84
2018-07-09T09:36:45.182Z,37.50
2018-07-09T09:37:45.353Z,37.79
2018-07-09T09:38:45.536Z,38.07
2018-07-09T09:39:45.711Z,38.46
2018-07-09T09:40:45.897Z,38.81
2018-07-09T09:41:46.069Z,39.26
2018-07-09T09:42:46.251Z,39.52
2018-07-09T09:43:46.436Z,40.13
2018-07-09T09:44:46.617Z,40.25
2018-07-09T09:45:46.797Z,40.39
2018-07-09T09:46:46.975Z,39.88
2018-07-09T09:47:47.159Z,39.86
2018-07-09T09:48:47.344Z,39.62
2018-07-09T09:49:47.525Z,39.92
2018-07-09T09:50:47.716Z,40.12
2018-07-09T09:51:47.898Z,40.73
2018-07-09T09:52:48.091Z,41.26
2018-07-09T09:53:48.276Z,41.63
2018-07-09T09:54:48.462Z,41.86
2018-07-09T09:55:48.640Z,41.73
2018-07-09T09:56:48.838Z,41.89
2018-07-09T09:57:49.213Z,42.24
2018-07-09T09:58:49.265Z,42.58
2018-07-09T09:59:49.445Z,42.70
2018-07-09T10:00:49.632Z,42.61
2018-07-09T10:01:49.819Z,42.54
2018-07-09T10:02:50.005Z,42.78
2018-07-09T10:03:50.196Z,43.00
2018-07-09T10:04:50.383Z,42.84
2018-07-09T10:05:50.565Z,42.92
2018-07-09T10:06:50.751Z,42.93
2018-07-09T10:07:50.940Z,43.25
2018-07-09T10:08:51.117Z,43.34
2018-07-09T10:09:51.381Z,43.50
2018-07-09T10:10:51.470Z,43.30
2018-07-09T10:11:51.731Z,43.41
2018-07-09T10:12:51.790Z,43.65
2018-07-09T10:13:51.988Z,43.81
2018-07-09T10:14:52.170Z,43.66
2018-07-09T10:15:52.361Z,43.64
2018-07-09T10:16:52.630Z,43.86
2018-07-09T10:17:52.767Z,43.97
2018-07-09T10:18:55.144Z,43.72
2018-07-09T10:19:53.225Z,43.61
2018-07-09T10:20:53.374Z,43.33
2018-07-09T10:21:53.565Z,43.22
2018-07-09T10:22:53.819Z,42.99
2018-07-09T10:23:53.950Z,43.49
2018-07-09T10:24:54.142Z,43.65
2018-07-09T10:25:54.334Z,43.76
2018-07-09T10:26:54.534Z,43.91
2018-07-09T10:27:54.719Z,44.24
2018-07-09T10:28:54.914Z,44.40
2018-07-09T10:29:55.125Z,44.60
2018-07-09T10:30:55.337Z,44.98
2018-07-09T10:31:55.528Z,45.21
2018-07-09T10:32:55.727Z,45.29
2018-07-09T10:33:55.922Z,45.29
2018-07-09T10:34:56.108Z,45.21
2018-07-09T10:35:56.299Z,45.05
2018-07-09T10:36:56.495Z,45.20
2018-07-09T10:37:56.675Z,45.20
2018-07-09T10:38:56.959Z,45.43
2018-07-09T10:39:57.067Z,45.70
2018-07-09T10:40:57.255Z,45.92
2018-07-09T10:41:57.453Z,45.93
2018-07-09T10:42:57.642Z,46.11
2018-07-09T10:43:57.838Z,46.12
2018-07-09T10:45:51.261Z,45.69
2018-07-09T10:46:51.514Z,45.31
2018-07-09T10:47:51.563Z,45.12
2018-07-09T10:48:51.763Z,45.21
2018-07-09T10:49:51.949Z,45.02
2018-07-09T10:50:52.138Z,45.04
2018-07-09T10:51:52.346Z,45.48
2018-07-09T10:52:52.532Z,45.12
2018-07-09T10:53:52.770Z,45.14
2018-07-09T10:54:52.955Z,45.39
2018-07-09T10:55:53.151Z,45.70
2018-07-09T10:56:53.339Z,46.11
2018-07-09T10:57:53.527Z,46.30
2018-07-09T10:58:53.729Z,46.27
2018-07-09T10:59:53.923Z,46.74
2018-07-09T11:00:54.118Z,46.90
2018-07-09T11:01:54.308Z,46.95
2018-07-09T11:02:54.505Z,46.93
2018-07-09T11:03:54.693Z,47.03
2018-07-09T11:04:54.894Z,46.90
2018-07-09T11:05:55.137Z,46.99
2018-07-09T11:06:55.330Z,47.09
2018-07-09T11:07:55.523Z,47.02
2018-07-09T11:08:55.720Z,47.21
2018-07-09T11:09:55.922Z,47.14
2018-07-09T11:10:56.131Z,47.45
2018-07-09T11:11:56.316Z,47.25
2018-07-09T11:12:56.518Z,47.17
2018-07-09T11:13:56.712Z,47.09
2018-07-09T11:14:56.907Z,46.91
2018-07-09T11:15:57.108Z,47.14
2018-07-09T11:16:57.295Z,47.14
2018-07-09T11:17:57.495Z,47.37
2018-07-09T11:18:57.694Z,46.64
2018-07-09T11:19:57.899Z,46.35
2018-07-09T11:20:58.083Z,46.39
2018-07-09T11:21:58.285Z,46.66
2018-07-09T11:22:58.484Z,46.86
2018-07-09T11:23:58.685Z,47.06
2018-07-09T11:24:58.880Z,47.44
2018-07-09T11:25:59.085Z,47.22
2018-07-09T11:26:59.281Z,46.68
2018-07-09T11:27:59.471Z,47.12
2018-07-09T11:28:59.676Z,47.17
2018-07-09T11:29:59.862Z,47.18
2018-07-09T11:31:00.066Z,46.91
2018-07-09T11:32:00.262Z,47.15
2018-07-09T11:33:00.472Z,47.14
2018-07-09T11:34:00.675Z,46.49
2018-07-09T11:35:00.867Z,45.89
2018-07-09T11:36:01.083Z,45.29
2018-07-09T11:37:01.265Z,45.23
2018-07-09T11:38:01.466Z,45.48
2018-07-09T11:39:01.665Z,45.86
2018-07-09T11:40:01.860Z,45.99
2018-07-09T11:41:02.057Z,46.26
2018-07-09T11:42:03.143Z,46.46
2018-07-09T11:43:02.452Z,46.54
2018-07-09T11:44:02.654Z,46.58
2018-07-09T11:45:02.854Z,46.93
2018-07-09T11:46:03.047Z,46.16
2018-07-09T11:47:03.259Z,46.27
2018-07-09T11:48:03.452Z,45.58
2018-07-09T11:49:03.655Z,45.45
2018-07-09T11:50:03.850Z,45.72
2018-07-09T11:51:04.048Z,45.16
2018-07-09T11:52:04.292Z,44.97
2018-07-09T11:53:04.441Z,45.14
2018-07-09T11:54:04.638Z,44.98
2018-07-09T11:55:04.835Z,45.51
2018-07-09T11:56:05.035Z,45.42
2018-07-09T11:57:05.232Z,45.47
2018-07-09T11:58:05.428Z,45.73
2018-07-09T11:59:05.633Z,45.98
2018-07-09T12:00:05.837Z,46.43
2018-07-09T12:01:06.030Z,46.61
2018-07-09T12:02:06.226Z,46.50
2018-07-09T12:03:06.429Z,46.66
2018-07-09T12:04:06.626Z,46.69
2018-07-09T12:05:06.825Z,46.78
2018-07-09T12:06:07.027Z,46.12
2018-07-09T12:07:07.289Z,46.72
2018-07-09T12:08:07.490Z,47.18
2018-07-09T12:09:07.685Z,47.51
2018-07-09T12:10:07.881Z,47.88
2018-07-09T12:11:08.085Z,48.44
2018-07-09T12:12:08.282Z,47.03
2018-07-09T12:13:08.505Z,46.08
2018-07-09T12:14:08.680Z,47.19
2018-07-09T12:15:08.877Z,46.01
2018-07-09T12:16:09.075Z,45.05
2018-07-09T12:17:09.279Z,43.46
2018-07-09T12:18:09.477Z,43.90
2018-07-09T12:19:09.675Z,42.55
2018-07-09T12:20:09.873Z,41.36
2018-07-09T12:21:10.064Z,40.76
2018-07-09T12:22:12.087Z,42.52
2018-07-09T12:23:10.460Z,43.66
2018-07-09T12:24:10.893Z,44.37
2018-07-09T12:25:10.786Z,43.60
2018-07-09T12:26:10.977Z,41.83
2018-07-09T12:27:11.268Z,41.16
2018-07-09T12:28:11.323Z,41.98
2018-07-09T12:29:11.563Z,42.49
2018-07-09T12:30:11.700Z,43.34
2018-07-09T12:31:11.906Z,44.07
2018-07-09T12:32:12.100Z,44.83
2018-07-09T12:33:12.301Z,45.21
2018-07-09T12:34:12.493Z,45.53
2018-07-09T12:35:12.685Z,45.62
2018-07-09T12:36:12.952Z,45.88
2018-07-09T12:37:13.080Z,45.57
2018-07-09T12:38:13.273Z,45.89
2018-07-09T12:39:13.468Z,44.44
2018-07-09T12:40:13.659Z,44.73
2018-07-09T12:41:13.861Z,44.94
2018-07-09T12:42:14.056Z,44.22
2018-07-09T12:43:14.253Z,43.23
2018-07-09T12:44:14.476Z,42.36
2018-07-09T12:45:14.669Z,42.59
2018-07-09T12:46:14.863Z,42.45
2018-07-09T12:47:15.061Z,41.76
2018-07-09T12:48:15.250Z,40.82
2018-07-09T12:49:15.442Z,40.25
2018-07-09T12:50:15.630Z,39.94
2018-07-09T12:51:15.821Z,39.84
2018-07-09T12:52:16.010Z,39.11
2018-07-09T12:53:16.200Z,38.74
2018-07-09T12:54:16.387Z,38.25
2018-07-09T12:55:16.572Z,38.15